createdAt,value
2016-08-15T00:00:20.799Z,1019.06
2016-08-15T00:01:20.779Z,1019.08
2016-08-15T00:02:20.764Z,1019.06
2016-08-15T00:03:20.747Z,1019.11
2016-08-15T00:04:20.731Z,1019.1
2016-08-15T00:05:20.714Z,1019.07
2016-08-15T00:06:20.700Z,1019.1
2016-08-15T00:07:20.682Z,1019.09
2016-08-15T00:08:20.665Z,1019.1
2016-08-15T00:09:20.647Z,1019.08
2016-08-15T00:10:20.633Z,1019.13
2016-08-15T00:11:20.617Z,1019.12
2016-08-15T00:12:20.605Z,1019.09
2016-08-15T00:13:20.588Z,1019.12
2016-08-15T00:14:20.569Z,1019.14
2016-08-15T00:15:20.555Z,1019.16
2016-08-15T00:16:20.535Z,1019.12
2016-08-15T00:17:20.519Z,1019.14
2016-08-15T00:18:20.504Z,1019.18
2016-08-15T00:19:20.485Z,1019.19
2016-08-15T00:20:20.471Z,1019.19
2016-08-15T00:21:20.455Z,1019.15
2016-08-15T00:22:20.441Z,1019.16
2016-08-15T00:23:20.420Z,1019.13
2016-08-15T00:24:20.403Z,1019.17
2016-08-15T00:25:20.389Z,1019.19
2016-08-15T00:26:20.373Z,1019.16
2016-08-15T00:27:20.359Z,1019.15
2016-08-15T00:28:20.339Z,1019.13
2016-08-15T00:29:20.325Z,1019.15
2016-08-15T00:30:20.307Z,1019.13
2016-08-15T00:31:20.292Z,1019.19
2016-08-15T00:32:20.273Z,1019.19
2016-08-15T00:33:20.262Z,1019.15
2016-08-15T00:34:20.242Z,1019.12
2016-08-15T00:35:20.231Z,1019.19
2016-08-15T00:36:20.210Z,1019.15
2016-08-15T00:37:20.193Z,1019.16
2016-08-15T00:38:20.177Z,1019.09
2016-08-15T00:39:20.167Z,1019.12
2016-08-15T00:40:20.148Z,1019.12
2016-08-15T00:41:20.132Z,1019.14
2016-08-15T00:42:20.111Z,1019.18
2016-08-15T00:43:20.098Z,1019.15
2016-08-15T00:44:20.079Z,1019.16
2016-08-15T00:45:20.063Z,1019.18
2016-08-15T00:46:20.054Z,1019.2
2016-08-15T00:47:20.033Z,1019.21
2016-08-15T00:48:20.014Z,1019.21
2016-08-15T00:49:20.009Z,1019.17
2016-08-15T00:50:19.983Z,1019.17
2016-08-15T00:51:19.969Z,1019.16
2016-08-15T00:52:19.951Z,1019.18
2016-08-15T00:53:19.935Z,1019.18
2016-08-15T00:54:19.918Z,1019.22
2016-08-15T00:55:19.903Z,1019.24
2016-08-15T00:56:19.886Z,1019.22
2016-08-15T00:57:19.873Z,1019.22
2016-08-15T00:58:19.852Z,1019.21
2016-08-15T00:59:19.843Z,1019.21
2016-08-15T01:00:19.821Z,1019.2
2016-08-15T01:01:19.807Z,1019.21
2016-08-15T01:02:19.789Z,1019.22
2016-08-15T01:03:19.774Z,1019.24
2016-08-15T01:04:19.757Z,1019.23
2016-08-15T01:05:19.739Z,1019.24
2016-08-15T01:06:19.727Z,1019.22
2016-08-15T01:07:19.709Z,1019.22
2016-08-15T01:08:19.692Z,1019.25
2016-08-15T01:09:19.677Z,1019.22
2016-08-15T01:10:19.662Z,1019.22
2016-08-15T01:11:19.645Z,1019.21
2016-08-15T01:12:19.625Z,1019.22
2016-08-15T01:13:19.611Z,1019.24
2016-08-15T01:14:19.599Z,1019.23
2016-08-15T01:15:19.579Z,1019.22
2016-08-15T01:16:19.564Z,1019.22
2016-08-15T01:17:19.547Z,1019.21
2016-08-15T01:18:19.529Z,1019.23
2016-08-15T01:19:19.514Z,1019.23
2016-08-15T01:20:19.499Z,1019.24
2016-08-15T01:21:19.485Z,1019.2
2016-08-15T01:22:19.465Z,1019.21
2016-08-15T01:23:19.450Z,1019.2
2016-08-15T01:24:19.434Z,1019.2
2016-08-15T01:25:19.420Z,1019.2
2016-08-15T01:26:19.402Z,1019.18
2016-08-15T01:27:19.382Z,1019.12
2016-08-15T01:28:19.372Z,1019.15
2016-08-15T01:29:19.356Z,1019.08
2016-08-15T01:30:19.335Z,1019.13
2016-08-15T01:31:19.322Z,1019.12
2016-08-15T01:32:19.312Z,1019.11
2016-08-15T01:33:19.287Z,1019.12
2016-08-15T01:34:19.274Z,1019.16
2016-08-15T01:35:19.255Z,1019.13
2016-08-15T01:36:19.238Z,1019.13
2016-08-15T01:37:19.225Z,1019.13
2016-08-15T01:38:19.205Z,1019.09
2016-08-15T01:39:19.192Z,1019.12
2016-08-15T01:40:19.173Z,1019.1
2016-08-15T01:41:19.157Z,1019.08
2016-08-15T01:42:19.142Z,1019.05
2016-08-15T01:43:19.127Z,1019.06
2016-08-15T01:44:19.108Z,1019.05
2016-08-15T01:45:19.092Z,1019.05
2016-08-15T01:46:19.077Z,1019.03
2016-08-15T01:47:19.067Z,1019.01
2016-08-15T01:48:19.044Z,1019.01
2016-08-15T01:49:19.031Z,1018.98
2016-08-15T01:50:19.015Z,1018.99
2016-08-15T01:51:18.995Z,1018.99
2016-08-15T01:52:18.980Z,1018.97
2016-08-15T01:53:18.964Z,1018.98
2016-08-15T01:54:18.949Z,1018.97
2016-08-15T01:55:18.930Z,1018.94
2016-08-15T01:56:18.917Z,1018.94
2016-08-15T01:57:18.900Z,1018.96
2016-08-15T01:58:18.882Z,1018.98
2016-08-15T01:59:18.868Z,1018.99
2016-08-15T02:00:18.851Z,1018.97
2016-08-15T02:01:18.833Z,1018.98
2016-08-15T02:02:18.816Z,1019.01
2016-08-15T02:03:18.802Z,1018.95
2016-08-15T02:04:18.797Z,1018.94
2016-08-15T02:05:18.774Z,1018.97
2016-08-15T02:06:18.753Z,1018.95
2016-08-15T02:07:18.735Z,1018.93
2016-08-15T02:08:18.723Z,1018.96
2016-08-15T02:09:18.707Z,1018.94
2016-08-15T02:10:18.688Z,1018.95
2016-08-15T02:11:18.680Z,1018.95
2016-08-15T02:12:18.657Z,1018.98
2016-08-15T02:13:18.639Z,1018.97
2016-08-15T02:14:18.622Z,1018.97
2016-08-15T02:15:18.606Z,1018.97
2016-08-15T02:16:18.593Z,1018.99
2016-08-15T02:17:18.576Z,1018.99
2016-08-15T02:18:18.561Z,1018.92
2016-08-15T02:19:18.545Z,1018.94
2016-08-15T02:20:18.528Z,1018.99
2016-08-15T02:21:18.518Z,1018.95
2016-08-15T02:22:18.496Z,1018.98
2016-08-15T02:23:18.481Z,1018.94
2016-08-15T02:24:18.462Z,1018.96
2016-08-15T02:25:18.446Z,1018.96
2016-08-15T02:26:18.434Z,1018.98
2016-08-15T02:27:18.415Z,1018.94
2016-08-15T02:28:18.405Z,1018.97
2016-08-15T02:29:18.381Z,1018.97
2016-08-15T02:30:18.366Z,1018.93
2016-08-15T02:31:18.347Z,1019
2016-08-15T02:32:18.334Z,1018.96
2016-08-15T02:33:18.320Z,1019.02
2016-08-15T02:34:18.301Z,1019.04
2016-08-15T02:35:18.288Z,1019.01
2016-08-15T02:36:18.269Z,1019.01
2016-08-15T02:37:18.254Z,1019.02
2016-08-15T02:38:18.236Z,1018.99
2016-08-15T02:39:18.238Z,1019.02
2016-08-15T02:40:18.204Z,1019.02
2016-08-15T02:41:18.187Z,1019.03
2016-08-15T02:42:18.171Z,1019.03
2016-08-15T02:43:18.157Z,1019.04
2016-08-15T02:44:18.147Z,1019.03
2016-08-15T02:45:18.124Z,1019.05
2016-08-15T02:46:18.107Z,1019.07
2016-08-15T02:47:18.089Z,1019.07
2016-08-15T02:48:18.075Z,1019.1
2016-08-15T02:49:18.060Z,1019.13
2016-08-15T02:50:18.046Z,1019.15
2016-08-15T02:51:18.027Z,1019.11
2016-08-15T02:52:18.012Z,1019.12
2016-08-15T02:53:18.001Z,1019.16
2016-08-15T02:54:17.977Z,1019.13
2016-08-15T02:55:17.964Z,1019.2
2016-08-15T02:56:17.946Z,1019.18
2016-08-15T02:57:17.931Z,1019.11
2016-08-15T02:58:17.914Z,1019.12
2016-08-15T02:59:17.897Z,1019.13
2016-08-15T03:00:17.881Z,1019.18
2016-08-15T03:01:17.868Z,1019.13
2016-08-15T03:02:17.848Z,1019.14
2016-08-15T03:03:17.831Z,1019.13
2016-08-15T03:04:17.819Z,1019.18
2016-08-15T03:05:17.801Z,1019.13
2016-08-15T03:06:17.785Z,1019.13
2016-08-15T03:07:17.767Z,1019.09
2016-08-15T03:08:17.752Z,1019.14
2016-08-15T03:09:17.737Z,1019.06
2016-08-15T03:10:17.722Z,1019.05
2016-08-15T03:11:17.704Z,1019.08
2016-08-15T03:12:17.691Z,1019.07
2016-08-15T03:13:17.672Z,1019.04
2016-08-15T03:14:17.661Z,1019.04
2016-08-15T03:15:17.639Z,1018.99
2016-08-15T03:16:17.627Z,1019.01
2016-08-15T03:17:17.608Z,1019
2016-08-15T03:18:17.591Z,1018.99
2016-08-15T03:19:17.574Z,1019.02
2016-08-15T03:20:17.560Z,1019
2016-08-15T03:21:17.543Z,1018.97
2016-08-15T03:22:17.526Z,1018.97
2016-08-15T03:23:17.511Z,1019.02
2016-08-15T03:24:17.494Z,1018.98
2016-08-15T03:25:17.481Z,1019.03
2016-08-15T03:26:17.462Z,1019.02
2016-08-15T03:27:17.447Z,1019.02
2016-08-15T03:28:17.429Z,1019.05
2016-08-15T03:29:17.414Z,1019.02
2016-08-15T03:30:17.397Z,1019
2016-08-15T03:31:17.381Z,1019.01
2016-08-15T03:32:17.367Z,1019.01
2016-08-15T03:33:17.349Z,1019.05
2016-08-15T03:34:17.355Z,1019.02
2016-08-15T03:35:17.317Z,1019
2016-08-15T03:36:17.299Z,1019.03
2016-08-15T03:37:17.284Z,1019
2016-08-15T03:38:17.267Z,1019.01
2016-08-15T03:39:17.251Z,1018.97
2016-08-15T03:40:17.237Z,1019.02
2016-08-15T03:41:17.219Z,1019
2016-08-15T03:42:17.204Z,1018.98
2016-08-15T03:43:17.184Z,1018.99
2016-08-15T03:44:17.168Z,1019.05
2016-08-15T03:45:17.155Z,1018.99
2016-08-15T03:46:17.135Z,1018.96
2016-08-15T03:47:17.122Z,1018.97
2016-08-15T03:48:17.105Z,1018.96
2016-08-15T03:49:17.091Z,1018.99
2016-08-15T03:50:17.075Z,1018.98
2016-08-15T03:51:17.060Z,1019.01
2016-08-15T03:52:17.038Z,1019.01
2016-08-15T03:53:17.025Z,1019
2016-08-15T03:54:17.010Z,1019
2016-08-15T03:55:16.992Z,1018.98
2016-08-15T03:56:16.977Z,1019.01
2016-08-15T03:57:16.959Z,1018.97
2016-08-15T03:58:16.944Z,1018.96
2016-08-15T03:59:16.926Z,1018.97
2016-08-15T04:00:16.913Z,1019
2016-08-15T04:01:16.895Z,1018.98
2016-08-15T04:02:16.886Z,1019.05
2016-08-15T04:03:16.863Z,1019.02
2016-08-15T04:04:16.848Z,1018.97
2016-08-15T04:05:16.832Z,1019
2016-08-15T04:06:16.819Z,1019.02
2016-08-15T04:07:16.797Z,1019.02
2016-08-15T04:08:16.786Z,1019.05
2016-08-15T04:09:16.768Z,1019.04
2016-08-15T04:10:16.755Z,1019
2016-08-15T04:11:16.733Z,1019.05
2016-08-15T04:12:16.717Z,1019.01
2016-08-15T04:13:16.705Z,1019.03
2016-08-15T04:14:16.681Z,1019.01
2016-08-15T04:15:16.672Z,1019.04
2016-08-15T04:16:16.655Z,1019.03
2016-08-15T04:17:16.637Z,1019.05
2016-08-15T04:18:16.619Z,1019.02
2016-08-15T04:19:16.605Z,1019.06
2016-08-15T04:20:16.588Z,1019.06
2016-08-15T04:21:16.578Z,1019.04
2016-08-15T04:22:16.558Z,1019.05
2016-08-15T04:23:16.540Z,1018.99
2016-08-15T04:24:16.522Z,1019.01
2016-08-15T04:25:16.516Z,1019.01
2016-08-15T04:26:16.493Z,1019.06
2016-08-15T04:27:16.480Z,1019.02
2016-08-15T04:28:16.457Z,1019.06
2016-08-15T04:29:16.439Z,1019.08
2016-08-15T04:30:16.426Z,1019.02
2016-08-15T04:31:16.411Z,1019.02
2016-08-15T04:32:16.392Z,1019.04
2016-08-15T04:33:16.377Z,1019.02
2016-08-15T04:34:16.380Z,1019.01
2016-08-15T04:35:16.344Z,1018.98
2016-08-15T04:36:16.328Z,1018.99
2016-08-15T04:37:16.312Z,1018.97
2016-08-15T04:38:16.297Z,1019.03
2016-08-15T04:39:16.289Z,1019.03
2016-08-15T04:40:16.263Z,1019
2016-08-15T04:41:16.251Z,1019.02
2016-08-15T04:42:16.230Z,1018.99
2016-08-15T04:43:16.214Z,1019.02
2016-08-15T04:44:16.195Z,1019.02
2016-08-15T04:45:16.183Z,1019.07
2016-08-15T04:46:16.165Z,1019.01
2016-08-15T04:47:16.148Z,1019.06
2016-08-15T04:48:16.136Z,1019.05
2016-08-15T04:49:16.118Z,1019.04
2016-08-15T04:50:16.106Z,1019
2016-08-15T04:51:16.086Z,1019.02
2016-08-15T04:52:16.070Z,1019.02
2016-08-15T04:53:16.054Z,1019.04
2016-08-15T04:54:16.037Z,1019.04
2016-08-15T04:55:16.019Z,1019.07
2016-08-15T04:56:16.002Z,1019.08
2016-08-15T04:57:15.988Z,1019.04
2016-08-15T04:58:15.972Z,1019.07
2016-08-15T04:59:15.955Z,1019.06
2016-08-15T05:00:15.938Z,1019.06
2016-08-15T05:01:15.922Z,1019.04
2016-08-15T05:02:15.907Z,1019.03
2016-08-15T05:03:15.888Z,1019.03
2016-08-15T05:04:15.874Z,1019.02
2016-08-15T05:05:15.857Z,1019.04
2016-08-15T05:06:15.842Z,1019.03
2016-08-15T05:07:15.824Z,1019.02
2016-08-15T05:08:15.808Z,1019.02
2016-08-15T05:09:15.793Z,1019.04
2016-08-15T05:10:15.776Z,1019.01
2016-08-15T05:11:15.759Z,1018.99
2016-08-15T05:12:15.740Z,1019
2016-08-15T05:13:15.729Z,1018.95
2016-08-15T05:14:15.710Z,1018.95
2016-08-15T05:15:15.695Z,1018.95
2016-08-15T05:16:15.677Z,1018.97
2016-08-15T05:17:15.663Z,1018.94
2016-08-15T05:18:15.646Z,1019
2016-08-15T05:19:15.630Z,1018.98
2016-08-15T05:20:15.613Z,1018.99
2016-08-15T05:21:15.598Z,1018.97
2016-08-15T05:22:15.581Z,1018.95
2016-08-15T05:23:15.564Z,1018.98
2016-08-15T05:24:15.548Z,1018.98
2016-08-15T05:25:15.538Z,1018.95
2016-08-15T05:26:15.518Z,1018.99
2016-08-15T05:27:15.499Z,1018.94
2016-08-15T05:28:15.484Z,1018.95
2016-08-15T05:29:15.466Z,1018.96
2016-08-15T05:30:15.449Z,1018.95
2016-08-15T05:31:15.434Z,1018.99
2016-08-15T05:32:15.418Z,1018.97
2016-08-15T05:33:15.401Z,1019.02
2016-08-15T05:34:15.386Z,1019.04
2016-08-15T05:35:15.369Z,1019
2016-08-15T05:36:15.352Z,1019.04
2016-08-15T05:37:15.336Z,1019.04
2016-08-15T05:38:15.317Z,1019.03
2016-08-15T05:39:15.310Z,1019.04
2016-08-15T05:40:15.287Z,1019.02
2016-08-15T05:41:15.270Z,1019.06
2016-08-15T05:42:15.270Z,1019.08
2016-08-15T05:43:15.239Z,1019.07
2016-08-15T05:44:15.222Z,1019.11
2016-08-15T05:45:15.204Z,1019.06
2016-08-15T05:46:15.189Z,1019.1
2016-08-15T05:47:15.171Z,1019.15
2016-08-15T05:48:15.160Z,1019.1
2016-08-15T05:49:15.138Z,1019.12
2016-08-15T05:50:15.124Z,1019.11
2016-08-15T05:51:15.108Z,1019.12
2016-08-15T05:52:15.091Z,1019.12
2016-08-15T05:53:15.075Z,1019.13
2016-08-15T05:54:15.059Z,1019.12
2016-08-15T05:55:15.042Z,1019.15
2016-08-15T05:56:15.026Z,1019.11
2016-08-15T05:57:15.010Z,1019.2
2016-08-15T05:58:14.993Z,1019.18
2016-08-15T05:59:14.979Z,1019.17
2016-08-15T06:00:14.960Z,1019.17
2016-08-15T06:01:14.943Z,1019.14
2016-08-15T06:02:14.925Z,1019.16
2016-08-15T06:03:14.928Z,1019.19
2016-08-15T06:04:14.896Z,1019.19
2016-08-15T06:05:14.879Z,1019.13
2016-08-15T06:06:14.864Z,1019.14
2016-08-15T06:07:14.847Z,1019.19
2016-08-15T06:08:14.831Z,1019.16
2016-08-15T06:09:14.817Z,1019.16
2016-08-15T06:10:14.799Z,1019.23
2016-08-15T06:11:14.791Z,1019.16
2016-08-15T06:12:14.767Z,1019.22
2016-08-15T06:13:14.749Z,1019.18
2016-08-15T06:14:14.732Z,1019.17
2016-08-15T06:15:14.715Z,1019.16
2016-08-15T06:16:14.703Z,1019.17
2016-08-15T06:17:14.683Z,1019.17
2016-08-15T06:18:14.668Z,1019.2
2016-08-15T06:19:14.652Z,1019.25
2016-08-15T06:20:14.637Z,1019.26
2016-08-15T06:21:14.621Z,1019.28
2016-08-15T06:22:14.609Z,1019.26
2016-08-15T06:23:14.587Z,1019.27
2016-08-15T06:24:14.571Z,1019.25
2016-08-15T06:25:14.554Z,1019.24
2016-08-15T06:26:14.537Z,1019.2
2016-08-15T06:27:14.522Z,1019.22
2016-08-15T06:28:14.506Z,1019.2
2016-08-15T06:29:14.489Z,1019.24
2016-08-15T06:30:14.473Z,1019.21
2016-08-15T06:31:14.456Z,1019.2
2016-08-15T06:32:14.437Z,1019.22
2016-08-15T06:33:14.426Z,1019.22
2016-08-15T06:34:14.407Z,1019.24
2016-08-15T06:35:14.390Z,1019.19
2016-08-15T06:36:14.372Z,1019.28
2016-08-15T06:37:14.358Z,1019.2
2016-08-15T06:38:14.343Z,1019.2
2016-08-15T06:39:14.326Z,1019.22
2016-08-15T06:40:14.309Z,1019.19
2016-08-15T06:41:14.289Z,1019.18
2016-08-15T06:42:14.277Z,1019.19
2016-08-15T06:43:14.256Z,1019.19
2016-08-15T06:44:14.244Z,1019.19
2016-08-15T06:45:14.226Z,1019.19
2016-08-15T06:46:14.215Z,1019.23
2016-08-15T06:47:14.194Z,1019.25
2016-08-15T06:48:14.175Z,1019.22
2016-08-15T06:49:14.162Z,1019.23
2016-08-15T06:50:14.142Z,1019.22
2016-08-15T06:51:14.127Z,1019.2
2016-08-15T06:52:14.112Z,1019.24
2016-08-15T06:53:14.097Z,1019.25
2016-08-15T06:54:14.078Z,1019.24
2016-08-15T06:55:14.061Z,1019.2
2016-08-15T06:56:14.049Z,1019.22
2016-08-15T06:57:14.030Z,1019.2
2016-08-15T06:58:14.013Z,1019.22
2016-08-15T06:59:14.003Z,1019.19
2016-08-15T07:00:13.985Z,1019.2
2016-08-15T07:01:13.966Z,1019.22
2016-08-15T07:02:13.948Z,1019.19
2016-08-15T07:03:13.933Z,1019.18
2016-08-15T07:04:13.920Z,1019.21
2016-08-15T07:05:13.900Z,1019.18
2016-08-15T07:06:13.884Z,1019.21
2016-08-15T07:07:13.873Z,1019.2
2016-08-15T07:08:13.849Z,1019.22
2016-08-15T07:09:13.834Z,1019.18
2016-08-15T07:10:14.818Z,1019.22
2016-08-15T07:11:13.805Z,1019.28
2016-08-15T07:12:13.786Z,1019.25
2016-08-15T07:13:13.769Z,1019.26
2016-08-15T07:14:13.753Z,1019.26
2016-08-15T07:15:13.736Z,1019.25
2016-08-15T07:16:13.720Z,1019.23
2016-08-15T07:17:13.702Z,1019.25
2016-08-15T07:18:13.688Z,1019.19
2016-08-15T07:19:13.672Z,1019.22
2016-08-15T07:20:13.655Z,1019.22
2016-08-15T07:21:13.649Z,1019.22
2016-08-15T07:22:13.623Z,1019.2
2016-08-15T07:23:13.605Z,1019.22
2016-08-15T07:24:13.590Z,1019.26
2016-08-15T07:25:13.575Z,1019.24
2016-08-15T07:26:13.565Z,1019.15
2016-08-15T07:27:13.541Z,1019.24
2016-08-15T07:28:13.529Z,1019.21
2016-08-15T07:29:13.510Z,1019.19
2016-08-15T07:30:13.496Z,1019.2
2016-08-15T07:31:13.475Z,1019.2
2016-08-15T07:32:13.460Z,1019.19
2016-08-15T07:33:13.446Z,1019.2
2016-08-15T07:34:13.428Z,1019.2
2016-08-15T07:35:13.417Z,1019.16
2016-08-15T07:36:13.441Z,1019.17
2016-08-15T07:37:13.380Z,1019.21
2016-08-15T07:38:13.364Z,1019.15
2016-08-15T07:39:13.347Z,1019.14
2016-08-15T07:40:13.332Z,1019.21
2016-08-15T07:41:13.315Z,1019.17
2016-08-15T07:42:13.298Z,1019.19
2016-08-15T07:43:13.284Z,1019.17
2016-08-15T07:44:13.266Z,1019.18
2016-08-15T07:45:13.250Z,1019.19
2016-08-15T07:46:13.231Z,1019.19
2016-08-15T07:47:13.216Z,1019.21
2016-08-15T07:48:13.201Z,1019.16
2016-08-15T07:49:13.184Z,1019.19
2016-08-15T07:50:13.165Z,1019.18
2016-08-15T07:51:13.153Z,1019.22
2016-08-15T07:52:13.136Z,1019.16
2016-08-15T07:53:13.118Z,1019.16
2016-08-15T07:54:13.103Z,1019.18
2016-08-15T07:55:13.087Z,1019.16
2016-08-15T07:56:13.071Z,1019.17
2016-08-15T07:57:13.058Z,1019.19
2016-08-15T07:58:13.038Z,1019.14
2016-08-15T07:59:13.023Z,1019.19
2016-08-15T08:00:13.009Z,1019.19
2016-08-15T08:01:12.994Z,1019.17
2016-08-15T08:02:12.983Z,1019.13
2016-08-15T08:03:12.959Z,1019.1
2016-08-15T08:04:12.939Z,1019.13
2016-08-15T08:05:12.923Z,1019.12
2016-08-15T08:06:12.909Z,1019.13
2016-08-15T08:07:12.895Z,1019.12
2016-08-15T08:08:12.885Z,1019.11
2016-08-15T08:09:12.863Z,1019.18
2016-08-15T08:10:12.848Z,1019.15
2016-08-15T08:11:12.832Z,1019.2
2016-08-15T08:12:12.813Z,1019.19
2016-08-15T08:13:12.796Z,1019.18
2016-08-15T08:14:12.780Z,1019.17
2016-08-15T08:15:12.762Z,1019.19
2016-08-15T08:16:12.748Z,1019.16
2016-08-15T08:17:12.733Z,1019.17
2016-08-15T08:18:12.716Z,1019.16
2016-08-15T08:19:12.701Z,1019.13
2016-08-15T08:20:12.694Z,1019.16
2016-08-15T08:21:12.676Z,1019.14
2016-08-15T08:22:12.654Z,1019.13
2016-08-15T08:23:12.639Z,1019.2
2016-08-15T08:24:12.618Z,1019.18
2016-08-15T08:25:12.609Z,1019.17
2016-08-15T08:26:12.586Z,1019.15
2016-08-15T08:27:12.570Z,1019.16
2016-08-15T08:28:12.552Z,1019.12
2016-08-15T08:29:12.536Z,1019.1
2016-08-15T08:30:12.521Z,1019.15
2016-08-15T08:31:12.505Z,1019.09
2016-08-15T08:32:12.487Z,1019.1
2016-08-15T08:33:12.471Z,1019.1
2016-08-15T08:34:12.455Z,1019.07
2016-08-15T08:35:12.441Z,1019.08
2016-08-15T08:36:12.430Z,1019.08
2016-08-15T08:37:12.404Z,1019.05
2016-08-15T08:38:12.388Z,1019.08
2016-08-15T08:39:12.374Z,1019.04
2016-08-15T08:40:12.354Z,1018.98
2016-08-15T08:41:12.341Z,1019.03
2016-08-15T08:42:12.326Z,1019.07
2016-08-15T08:43:12.309Z,1019.06
2016-08-15T08:44:12.291Z,1018.96
2016-08-15T08:45:12.279Z,1019.05
2016-08-15T08:46:12.259Z,1019.04
2016-08-15T08:47:12.242Z,1019.08
2016-08-15T08:48:12.225Z,1019.08
2016-08-15T08:49:12.209Z,1019.04
2016-08-15T08:50:12.191Z,1019.04
2016-08-15T08:51:12.175Z,1019.09
2016-08-15T08:52:12.157Z,1018.98
2016-08-15T08:53:12.146Z,1019.04
2016-08-15T08:54:12.127Z,1019
2016-08-15T08:55:12.109Z,1019.01
2016-08-15T08:56:12.093Z,1019.01
2016-08-15T08:57:12.077Z,1019.02
2016-08-15T08:58:12.062Z,1018.97
2016-08-15T08:59:12.046Z,1018.95
2016-08-15T09:00:12.028Z,1018.95
2016-08-15T09:01:12.013Z,1018.99
2016-08-15T09:02:11.995Z,1018.97
2016-08-15T09:03:11.983Z,1019.03
2016-08-15T09:04:11.963Z,1018.99
2016-08-15T09:05:11.946Z,1018.95
2016-08-15T09:06:11.928Z,1018.95
2016-08-15T09:07:12.261Z,1018.98
2016-08-15T09:08:11.898Z,1018.94
2016-08-15T09:09:11.886Z,1018.89
2016-08-15T09:10:11.865Z,1018.92
2016-08-15T09:11:11.846Z,1018.89
2016-08-15T09:12:11.834Z,1018.97
2016-08-15T09:13:11.817Z,1018.92
2016-08-15T09:14:11.801Z,1018.93
2016-08-15T09:15:11.784Z,1019
2016-08-15T09:16:11.770Z,1018.96
2016-08-15T09:17:11.751Z,1018.92
2016-08-15T09:18:11.735Z,1018.92
2016-08-15T09:19:11.721Z,1018.9
2016-08-15T09:20:11.706Z,1018.91
2016-08-15T09:21:11.687Z,1018.87
2016-08-15T09:22:11.672Z,1018.84
2016-08-15T09:23:11.657Z,1018.83
2016-08-15T09:24:11.637Z,1018.82
2016-08-15T09:25:11.622Z,1018.85
2016-08-15T09:26:11.606Z,1018.86
2016-08-15T09:27:11.588Z,1018.82
2016-08-15T09:28:11.571Z,1018.76
2016-08-15T09:29:11.555Z,1018.76
2016-08-15T09:30:11.542Z,1018.75
2016-08-15T09:31:11.524Z,1018.74
2016-08-15T09:32:11.510Z,1018.72
2016-08-15T09:33:11.494Z,1018.74
2016-08-15T09:34:11.475Z,1018.75
2016-08-15T09:35:11.460Z,1018.77
2016-08-15T09:36:11.444Z,1018.79
2016-08-15T09:37:11.427Z,1018.74
2016-08-15T09:38:11.413Z,1018.79
2016-08-15T09:39:11.401Z,1018.79
2016-08-15T09:40:11.379Z,1018.79
2016-08-15T09:41:11.366Z,1018.76
2016-08-15T09:42:11.348Z,1018.76
2016-08-15T09:43:11.331Z,1018.76
2016-08-15T09:44:11.313Z,1018.7
2016-08-15T09:45:11.298Z,1018.73
2016-08-15T09:46:11.282Z,1018.78
2016-08-15T09:47:11.269Z,1018.7
2016-08-15T09:48:11.250Z,1018.75
2016-08-15T09:49:11.232Z,1018.78
2016-08-15T09:50:11.219Z,1018.75
2016-08-15T09:51:11.204Z,1018.75
2016-08-15T09:52:11.185Z,1018.75
2016-08-15T09:53:11.171Z,1018.79
2016-08-15T09:54:11.152Z,1018.75
2016-08-15T09:55:11.139Z,1018.72
2016-08-15T09:56:11.126Z,1018.71
2016-08-15T09:57:11.105Z,1018.69
2016-08-15T09:58:11.088Z,1018.67
2016-08-15T09:59:11.073Z,1018.68
2016-08-15T10:00:11.058Z,1018.76
2016-08-15T10:01:11.041Z,1018.71
2016-08-15T10:02:11.026Z,1018.68
2016-08-15T10:03:11.008Z,1018.69
2016-08-15T10:04:10.998Z,1018.73
2016-08-15T10:05:10.974Z,1018.73
2016-08-15T10:06:10.958Z,1018.65
2016-08-15T10:07:10.943Z,1018.61
2016-08-15T10:08:10.923Z,1018.63
2016-08-15T10:09:10.909Z,1018.63
2016-08-15T10:10:10.893Z,1018.63
2016-08-15T10:11:10.875Z,1018.66
2016-08-15T10:12:10.858Z,1018.64
2016-08-15T10:13:10.844Z,1018.65
2016-08-15T10:14:10.826Z,1018.64
2016-08-15T10:15:10.809Z,1018.63
2016-08-15T10:16:10.791Z,1018.65
2016-08-15T10:17:10.779Z,1018.59
2016-08-15T10:18:10.762Z,1018.58
2016-08-15T10:20:10.736Z,1018.58
2016-08-15T10:21:10.711Z,1018.61
2016-08-15T10:22:10.698Z,1018.63
2016-08-15T10:23:10.676Z,1018.6
2016-08-15T10:24:10.662Z,1018.58
2016-08-15T10:25:10.644Z,1018.59
2016-08-15T10:26:10.630Z,1018.63
2016-08-15T10:27:10.611Z,1018.54
2016-08-15T10:28:10.596Z,1018.57
2016-08-15T10:29:10.580Z,1018.62
2016-08-15T10:30:10.560Z,1018.61
2016-08-15T10:31:10.547Z,1018.62
2016-08-15T10:32:10.528Z,1018.57
2016-08-15T10:33:10.515Z,1018.55
2016-08-15T10:34:10.495Z,1018.59
2016-08-15T10:35:10.485Z,1018.57
2016-08-15T10:36:10.465Z,1018.62
2016-08-15T10:37:10.447Z,1018.58
2016-08-15T10:38:10.433Z,1018.56
2016-08-15T10:39:10.421Z,1018.58
2016-08-15T10:40:10.402Z,1018.59
2016-08-15T10:41:10.381Z,1018.57
2016-08-15T10:42:10.366Z,1018.6
2016-08-15T10:43:10.355Z,1018.64
2016-08-15T10:44:10.332Z,1018.54
2016-08-15T10:45:10.316Z,1018.54
2016-08-15T10:46:10.299Z,1018.54
2016-08-15T10:47:10.288Z,1018.59
2016-08-15T10:48:10.285Z,1018.53
2016-08-15T10:49:10.250Z,1018.54
2016-08-15T10:50:10.241Z,1018.53
2016-08-15T10:51:10.217Z,1018.5
2016-08-15T10:52:10.200Z,1018.51
2016-08-15T10:53:10.186Z,1018.52
2016-08-15T10:54:10.168Z,1018.51
2016-08-15T10:55:10.155Z,1018.55
2016-08-15T10:56:10.135Z,1018.5
2016-08-15T10:57:10.118Z,1018.47
2016-08-15T10:58:10.102Z,1018.51
2016-08-15T10:59:10.085Z,1018.52
2016-08-15T11:00:10.070Z,1018.51
2016-08-15T11:01:10.053Z,1018.47
2016-08-15T11:02:10.038Z,1018.49
2016-08-15T11:03:10.021Z,1018.46
2016-08-15T11:04:10.008Z,1018.54
2016-08-15T11:05:09.988Z,1018.46
2016-08-15T11:06:09.970Z,1018.51
2016-08-15T11:07:09.956Z,1018.46
2016-08-15T11:08:09.942Z,1018.47
2016-08-15T11:09:09.923Z,1018.46
2016-08-15T11:10:09.905Z,1018.46
2016-08-15T11:11:09.891Z,1018.46
2016-08-15T11:12:09.873Z,1018.47
2016-08-15T11:13:09.857Z,1018.42
2016-08-15T11:14:09.841Z,1018.45
2016-08-15T11:15:09.825Z,1018.41
2016-08-15T11:16:09.809Z,1018.42
2016-08-15T11:17:09.792Z,1018.4
2016-08-15T11:18:09.774Z,1018.39
2016-08-15T11:19:09.759Z,1018.35
2016-08-15T11:20:09.749Z,1018.4
2016-08-15T11:21:09.724Z,1018.4
2016-08-15T11:22:09.710Z,1018.41
2016-08-15T11:23:09.693Z,1018.4
2016-08-15T11:24:09.678Z,1018.46
2016-08-15T11:25:09.659Z,1018.42
2016-08-15T11:26:09.642Z,1018.41
2016-08-15T11:27:09.726Z,1018.4
2016-08-15T11:28:09.614Z,1018.37
2016-08-15T11:29:09.593Z,1018.39
2016-08-15T11:30:09.578Z,1018.4
2016-08-15T11:31:09.561Z,1018.41
2016-08-15T11:32:09.544Z,1018.45
2016-08-15T11:33:09.525Z,1018.44
2016-08-15T11:34:09.513Z,1018.49
2016-08-15T11:35:09.496Z,1018.49
2016-08-15T11:36:09.478Z,1018.49
2016-08-15T11:37:09.463Z,1018.46
2016-08-15T11:38:09.446Z,1018.45
2016-08-15T11:39:09.428Z,1018.46
2016-08-15T11:40:09.416Z,1018.48
2016-08-15T11:41:09.402Z,1018.49
2016-08-15T11:42:09.380Z,1018.53
2016-08-15T11:43:09.364Z,1018.48
2016-08-15T11:44:09.350Z,1018.5
2016-08-15T11:45:09.330Z,1018.47
2016-08-15T11:46:09.316Z,1018.44
2016-08-15T11:47:09.299Z,1018.49
2016-08-15T11:48:09.284Z,1018.5
2016-08-15T11:49:09.266Z,1018.51
2016-08-15T11:50:09.248Z,1018.46
2016-08-15T11:51:09.232Z,1018.49
2016-08-15T11:52:09.214Z,1018.47
2016-08-15T11:53:09.198Z,1018.47
2016-08-15T11:54:09.182Z,1018.52
2016-08-15T11:55:09.165Z,1018.5
2016-08-15T11:56:09.150Z,1018.48
2016-08-15T11:57:09.133Z,1018.48
2016-08-15T11:58:09.114Z,1018.47
2016-08-15T11:59:09.102Z,1018.43
2016-08-15T12:00:09.089Z,1018.45
2016-08-15T12:01:09.068Z,1018.43
2016-08-15T12:02:09.050Z,1018.43
2016-08-15T12:03:09.038Z,1018.39
2016-08-15T12:04:09.022Z,1018.42
2016-08-15T12:05:09.001Z,1018.37
2016-08-15T12:06:08.984Z,1018.38
2016-08-15T12:07:08.967Z,1018.42
2016-08-15T12:08:08.954Z,1018.4
2016-08-15T12:09:08.943Z,1018.45
2016-08-15T12:10:08.919Z,1018.42